createdAt,value
2019-02-05T00:00:58.193Z,7.30
2019-02-05T00:03:27.176Z,6.83
2019-02-05T00:05:55.927Z,6.47
2019-02-05T00:08:24.548Z,6.33
2019-02-05T00:10:53.805Z,5.87
2019-02-05T00:13:22.796Z,6.97
2019-02-05T00:15:51.668Z,6.97
2019-02-05T00:18:20.400Z,6.63
2019-02-05T00:20:49.099Z,6.60
2019-02-05T00:23:18.754Z,6.23
2019-02-05T00:25:47.113Z,7.07
2019-02-05T00:28:15.813Z,6.80
2019-02-05T00:30:44.476Z,6.67
2019-02-05T00:33:13.087Z,6.13
2019-02-05T00:35:42.775Z,6.67
2019-02-05T00:38:12.139Z,7.10
2019-02-05T00:40:41.692Z,7.57
2019-02-05T00:43:10.962Z,7.00
2019-02-05T00:45:41.552Z,7.23
2019-02-05T00:48:10.044Z,6.93
2019-02-05T00:50:38.602Z,7.97
2019-02-05T00:53:07.242Z,5.27
2019-02-05T00:55:35.819Z,7.93
2019-02-05T00:58:04.739Z,7.20
2019-02-05T01:00:34.186Z,8.00
2019-02-05T01:03:04.517Z,7.73
2019-02-05T01:05:33.388Z,8.20
2019-02-05T01:08:02.030Z,7.73
2019-02-05T01:10:31.087Z,8.37
2019-02-05T01:12:59.607Z,7.93
2019-02-05T01:15:28.300Z,8.00
2019-02-05T01:17:57.992Z,7.83
2019-02-05T01:20:26.574Z,7.37
2019-02-05T01:22:55.079Z,7.80
2019-02-05T01:25:23.842Z,8.37
2019-02-05T01:27:52.859Z,7.60
2019-02-05T01:30:23.984Z,7.17
2019-02-05T01:32:52.652Z,7.60
2019-02-05T01:35:21.501Z,8.83
2019-02-05T01:37:50.865Z,7.37
2019-02-05T01:40:21.983Z,7.87
2019-02-05T01:42:50.940Z,7.37
2019-02-05T01:45:21.633Z,8.10
2019-02-05T01:47:50.653Z,7.57
2019-02-05T01:50:24.664Z,7.83
2019-02-05T01:52:53.388Z,7.37
2019-02-05T01:55:22.341Z,7.87
2019-02-05T01:57:51.283Z,7.97
2019-02-05T02:00:26.336Z,8.03
2019-02-05T02:02:54.920Z,7.53
2019-02-05T02:05:24.029Z,7.57
2019-02-05T02:07:53.030Z,8.50
2019-02-05T02:10:24.988Z,7.97
2019-02-05T02:12:54.305Z,8.63
2019-02-05T02:15:23.125Z,7.77
2019-02-05T02:17:51.812Z,7.73
2019-02-05T02:20:20.915Z,7.93
2019-02-05T02:22:49.626Z,7.90
2019-02-05T02:25:18.699Z,8.20
2019-02-05T02:27:49.346Z,7.70
2019-02-05T02:30:27.080Z,8.13
2019-02-05T02:32:55.982Z,8.37
2019-02-05T02:35:24.435Z,8.23
2019-02-05T02:37:53.479Z,8.83
2019-02-05T02:40:21.940Z,8.40
2019-02-05T02:42:51.026Z,9.30
2019-02-05T02:45:19.713Z,9.47
2019-02-05T02:47:48.416Z,8.90
2019-02-05T02:50:17.036Z,9.57
2019-02-05T02:52:45.950Z,9.63
2019-02-05T02:55:14.909Z,9.33
2019-02-05T02:57:44.148Z,9.37
2019-02-05T03:00:16.634Z,10.43
2019-02-05T03:02:46.230Z,9.80
2019-02-05T03:05:17.616Z,10.27
2019-02-05T03:07:48.568Z,9.97
2019-02-05T03:10:23.368Z,11.50
2019-02-05T03:12:52.683Z,10.70
2019-02-05T03:15:21.809Z,9.10
2019-02-05T03:17:50.564Z,10.43
2019-02-05T03:20:18.978Z,10.80
2019-02-05T03:22:48.243Z,12.33
2019-02-05T03:25:20.219Z,11.47
2019-02-05T03:27:48.934Z,11.47
2019-02-05T03:30:19.758Z,11.53
2019-02-05T03:32:49.553Z,12.23
2019-02-05T03:35:19.567Z,12.87
2019-02-05T03:37:48.742Z,12.30
2019-02-05T03:41:05.921Z,13.17
2019-02-05T03:43:36.683Z,12.10
2019-02-05T03:46:08.383Z,13.43
2019-02-05T03:48:37.657Z,12.60
2019-02-05T03:51:49.486Z,13.00
2019-02-05T03:55:37.151Z,13.70
2019-02-05T03:59:00.448Z,13.70
2019-02-05T04:02:31.834Z,15.60
2019-02-05T04:05:57.249Z,13.67
2019-02-05T04:09:35.807Z,11.87
2019-02-05T04:12:55.941Z,14.97
2019-02-05T04:16:11.294Z,15.27
2019-02-05T04:19:45.043Z,14.77
2019-02-05T04:22:44.098Z,15.57
2019-02-05T04:26:09.084Z,14.57
2019-02-05T04:29:07.547Z,16.33
2019-02-05T04:32:19.876Z,16.33
2019-02-05T04:35:48.811Z,16.30
2019-02-05T04:39:39.672Z,17.67
2019-02-05T04:43:15.694Z,16.67
2019-02-05T04:46:26.188Z,16.30
2019-02-05T04:50:13.060Z,17.57
2019-02-05T04:53:21.447Z,16.43
2019-02-05T04:56:44.047Z,17.03
2019-02-05T05:00:27.390Z,15.67
2019-02-05T05:03:24.493Z,17.83
2019-02-05T05:07:08.444Z,16.47
2019-02-05T05:09:59.441Z,17.10
2019-02-05T05:12:30.111Z,18.83
2019-02-05T05:14:59.566Z,19.77
2019-02-05T05:17:28.422Z,18.33
2019-02-05T05:19:57.109Z,19.70
2019-02-05T05:22:26.218Z,20.37
2019-02-05T05:24:54.975Z,20.00
2019-02-05T05:27:25.133Z,20.27
2019-02-05T05:29:54.009Z,20.67
2019-02-05T05:32:22.731Z,21.23
2019-02-05T05:34:51.168Z,20.90
2019-02-05T05:37:18.338Z,22.27
2019-02-05T05:39:47.089Z,21.90
2019-02-05T05:42:15.706Z,19.97
2019-02-05T05:44:44.797Z,20.80
2019-02-05T05:47:13.395Z,20.87
2019-02-05T05:49:41.938Z,21.07
2019-02-05T05:52:10.693Z,21.80
2019-02-05T05:54:39.292Z,20.33
2019-02-05T05:57:07.979Z,19.30
2019-02-05T05:59:36.591Z,20.00
2019-02-05T06:02:05.594Z,20.67
2019-02-05T06:04:34.266Z,20.63
2019-02-05T06:07:02.984Z,21.43
2019-02-05T06:09:31.507Z,23.20
2019-02-05T06:12:00.183Z,22.90
2019-02-05T06:14:28.931Z,21.63
2019-02-05T06:16:57.682Z,21.07
2019-02-05T06:19:26.815Z,20.23
2019-02-05T06:21:55.364Z,20.43
2019-02-05T06:24:24.074Z,21.63
2019-02-05T06:26:52.651Z,22.70
2019-02-05T06:29:21.438Z,22.47
2019-02-05T06:31:50.101Z,21.50
2019-02-05T06:34:18.700Z,22.00
2019-02-05T06:36:47.239Z,21.10
2019-02-05T06:39:15.903Z,22.43
2019-02-05T06:41:44.641Z,21.27
2019-02-05T06:44:13.713Z,18.97
2019-02-05T06:46:42.273Z,23.00
2019-02-05T06:49:10.892Z,23.00
2019-02-05T06:51:39.855Z,23.67
2019-02-05T06:54:08.608Z,23.77
2019-02-05T06:56:37.185Z,23.13
2019-02-05T06:59:06.017Z,22.90
2019-02-05T07:01:34.723Z,22.17
2019-02-05T07:04:04.508Z,23.73
2019-02-05T07:06:33.274Z,23.77
2019-02-05T07:09:02.321Z,21.20
2019-02-05T07:11:30.814Z,22.03
2019-02-05T07:13:59.506Z,21.07
2019-02-05T07:16:28.003Z,19.57
2019-02-05T07:18:56.835Z,22.03
2019-02-05T07:21:25.532Z,20.63
2019-02-05T07:23:54.161Z,19.80
2019-02-05T07:26:23.298Z,20.93
2019-02-05T07:28:58.449Z,21.57
2019-02-05T07:31:22.582Z,20.97
2019-02-05T07:33:51.212Z,18.87
2019-02-05T07:36:19.898Z,17.20
2019-02-05T07:38:48.402Z,17.33
2019-02-05T07:41:17.186Z,16.50
2019-02-05T07:43:46.257Z,17.50
2019-02-05T07:46:15.017Z,16.27
2019-02-05T07:48:43.570Z,15.93
2019-02-05T07:51:12.139Z,15.23
2019-02-05T07:53:40.894Z,14.00
2019-02-05T07:56:12.820Z,14.80
2019-02-05T07:58:40.464Z,15.23
2019-02-05T08:01:09.037Z,14.13
2019-02-05T08:03:37.571Z,12.70
2019-02-05T08:06:06.102Z,14.10
2019-02-05T08:08:35.051Z,14.33
2019-02-05T08:11:04.665Z,12.67
2019-02-05T08:13:35.031Z,13.97
2019-02-05T08:16:04.143Z,13.00
2019-02-05T08:18:32.786Z,14.40
2019-02-05T08:21:02.247Z,13.20
2019-02-05T08:23:30.812Z,13.83
2019-02-05T08:25:59.393Z,15.77
2019-02-05T08:28:28.132Z,14.80
2019-02-05T08:30:56.622Z,15.23
2019-02-05T08:33:25.719Z,15.67
2019-02-05T08:35:54.214Z,13.53
2019-02-05T08:38:24.206Z,14.67
2019-02-05T08:40:52.676Z,15.10
2019-02-05T08:43:21.292Z,14.43
2019-02-05T08:45:56.658Z,15.23
2019-02-05T08:48:20.337Z,14.67
2019-02-05T08:50:48.844Z,14.27
2019-02-05T08:53:17.474Z,13.27
2019-02-05T08:55:46.239Z,14.00
2019-02-05T08:58:17.081Z,13.37
2019-02-05T09:00:46.039Z,15.37
2019-02-05T09:03:14.561Z,14.40
2019-02-05T09:05:43.094Z,16.13
2019-02-05T09:08:11.583Z,14.57
2019-02-05T09:10:40.623Z,15.60
2019-02-05T09:13:09.710Z,14.70
2019-02-05T09:15:38.536Z,15.27
2019-02-05T09:18:08.281Z,15.67
2019-02-05T09:20:37.035Z,13.83
2019-02-05T09:23:05.994Z,14.90
2019-02-05T09:25:34.591Z,14.77
2019-02-05T09:28:03.467Z,14.07
2019-02-05T09:30:33.642Z,14.27
2019-02-05T09:33:06.955Z,14.00
2019-02-05T09:35:35.738Z,14.20
2019-02-05T09:38:05.153Z,16.27
2019-02-05T09:40:34.101Z,16.73
2019-02-05T09:43:03.231Z,16.63
2019-02-05T09:45:33.140Z,15.90
2019-02-05T09:48:02.264Z,14.67
2019-02-05T09:50:43.495Z,14.50
2019-02-05T09:53:01.822Z,15.73
2019-02-05T09:55:30.300Z,15.70
2019-02-05T09:57:58.990Z,15.70
2019-02-05T10:00:37.547Z,15.70
2019-02-05T10:03:07.956Z,16.00
2019-02-05T10:05:37.025Z,15.77
2019-02-05T10:08:06.577Z,15.40
2019-02-05T10:10:35.303Z,16.80
2019-02-05T10:13:04.694Z,16.53
2019-02-05T10:15:35.490Z,15.43
2019-02-05T10:18:06.802Z,14.60
2019-02-05T10:20:35.846Z,16.90
2019-02-05T10:23:07.123Z,15.33
2019-02-05T10:25:36.358Z,16.00
2019-02-05T10:28:05.273Z,16.53
2019-02-05T10:30:43.341Z,16.60
2019-02-05T10:33:12.869Z,16.67
2019-02-05T10:35:42.039Z,16.43
2019-02-05T10:38:10.822Z,15.90
2019-02-05T10:40:39.361Z,16.87
2019-02-05T10:43:08.374Z,18.23
2019-02-05T10:45:37.438Z,18.00
2019-02-05T10:48:08.974Z,17.47
2019-02-05T10:50:37.937Z,18.53
2019-02-05T10:53:07.819Z,18.10
2019-02-05T10:55:36.484Z,19.53
2019-02-05T10:58:06.805Z,19.13
2019-02-05T11:00:35.438Z,18.67
2019-02-05T11:03:06.537Z,19.17
2019-02-05T11:05:35.853Z,19.37
2019-02-05T11:08:05.785Z,18.27
2019-02-05T11:10:34.779Z,19.07
2019-02-05T11:13:05.065Z,18.70
2019-02-05T11:15:34.273Z,20.93
2019-02-05T11:18:07.102Z,20.60
2019-02-05T11:20:35.880Z,21.37
2019-02-05T11:23:05.315Z,18.30
2019-02-05T11:25:34.539Z,19.40
2019-02-05T11:28:03.165Z,18.97
2019-02-05T11:30:42.357Z,18.93
2019-02-05T11:33:11.511Z,19.47
2019-02-05T11:35:40.106Z,18.93
2019-02-05T11:38:10.702Z,20.83
2019-02-05T11:40:40.394Z,17.47
2019-02-05T11:43:09.065Z,16.77
2019-02-05T11:45:37.817Z,16.20
2019-02-05T11:48:12.681Z,15.50
2019-02-05T11:50:41.752Z,15.10
2019-02-05T11:53:10.336Z,15.17
2019-02-05T11:55:39.539Z,15.23
2019-02-05T11:58:08.149Z,15.03
2019-02-05T12:00:59.275Z,16.83
2019-02-05T12:03:28.171Z,15.57
2019-02-05T12:05:56.663Z,13.87
2019-02-05T12:08:25.660Z,15.97
2019-02-05T12:10:54.246Z,15.40
2019-02-05T12:13:22.725Z,15.80
2019-02-05T12:15:51.278Z,15.73
2019-02-05T12:18:20.614Z,15.33
2019-02-05T12:20:49.760Z,14.40
2019-02-05T12:23:18.550Z,15.10
2019-02-05T12:25:47.242Z,14.83
2019-02-05T12:28:16.035Z,16.17
2019-02-05T12:30:45.685Z,17.30
2019-02-05T12:33:14.565Z,15.77
2019-02-05T12:35:43.630Z,15.47
2019-02-05T12:38:12.424Z,15.90
2019-02-05T12:40:41.012Z,15.87
2019-02-05T12:43:09.530Z,15.90
2019-02-05T12:45:38.359Z,16.33
2019-02-05T12:48:07.369Z,15.60
2019-02-05T12:50:37.180Z,16.00
2019-02-05T12:53:06.551Z,15.93
2019-02-05T12:55:36.118Z,16.17
2019-02-05T12:58:05.450Z,15.27
2019-02-05T13:00:55.995Z,14.97
2019-02-05T13:03:14.447Z,15.00
2019-02-05T13:05:44.373Z,15.30
2019-02-05T13:08:13.575Z,14.80
2019-02-05T13:10:45.348Z,13.37
2019-02-05T13:13:14.636Z,12.97
2019-02-05T13:15:43.156Z,13.80
2019-02-05T13:18:11.921Z,13.80
2019-02-05T13:20:40.716Z,12.90
2019-02-05T13:23:09.929Z,12.50
2019-02-05T13:25:39.146Z,14.00
2019-02-05T13:28:11.232Z,12.47
2019-02-05T13:30:40.544Z,11.97
2019-02-05T13:33:12.959Z,13.13
2019-02-05T13:35:41.981Z,11.93
2019-02-05T13:38:10.454Z,12.17
2019-02-05T13:40:39.227Z,11.27
2019-02-05T13:43:08.339Z,12.83
2019-02-05T13:45:39.637Z,12.87
2019-02-05T13:48:08.694Z,11.80
2019-02-05T13:50:37.691Z,11.87
2019-02-05T13:53:06.816Z,11.93
2019-02-05T13:55:39.661Z,11.87
2019-02-05T13:58:09.400Z,12.50
2019-02-05T14:00:52.958Z,11.70
2019-02-05T14:03:22.005Z,12.93
2019-02-05T14:05:50.536Z,13.63
2019-02-05T14:08:19.203Z,12.70
2019-02-05T14:10:48.946Z,12.50
2019-02-05T14:13:18.690Z,13.07
2019-02-05T14:15:51.173Z,13.87
2019-02-05T14:18:22.683Z,13.47
2019-02-05T14:20:50.390Z,14.43
2019-02-05T14:23:19.163Z,13.50
2019-02-05T14:25:47.829Z,14.80
2019-02-05T14:28:16.629Z,13.60
2019-02-05T14:30:54.500Z,14.17
2019-02-05T14:33:25.518Z,14.33
2019-02-05T14:35:54.333Z,14.67
2019-02-05T14:38:23.074Z,15.63
2019-02-05T14:40:51.683Z,16.40
2019-02-05T14:43:20.280Z,15.97
2019-02-05T14:45:49.252Z,16.13
2019-02-05T14:48:17.998Z,16.50
2019-02-05T14:50:47.287Z,16.73
2019-02-05T14:53:17.423Z,15.73
2019-02-05T14:55:46.382Z,16.23
2019-02-05T14:58:16.981Z,16.33
2019-02-05T15:00:45.824Z,17.50
2019-02-05T15:03:15.162Z,17.20
2019-02-05T15:05:45.285Z,17.93
2019-02-05T15:08:15.785Z,17.10
2019-02-05T15:10:44.617Z,18.77
2019-02-05T15:13:15.867Z,20.77
2019-02-05T15:15:43.986Z,16.27
2019-02-05T15:18:21.683Z,16.00
2019-02-05T15:20:50.941Z,17.50
2019-02-05T15:23:20.201Z,16.97
2019-02-05T15:25:48.683Z,17.40
2019-02-05T15:28:17.202Z,16.77
2019-02-05T15:30:46.267Z,17.77
2019-02-05T15:33:52.389Z,17.30
2019-02-05T15:36:26.790Z,17.40
2019-02-05T15:38:55.550Z,18.07
2019-02-05T15:41:24.245Z,19.00
2019-02-05T15:43:52.936Z,16.90
2019-02-05T15:46:21.915Z,17.33
2019-02-05T15:48:50.686Z,16.33
2019-02-05T15:51:19.304Z,17.73
2019-02-05T15:53:48.185Z,18.77
2019-02-05T15:56:16.852Z,18.23
2019-02-05T15:58:45.401Z,17.77
2019-02-05T16:01:15.428Z,17.90
2019-02-05T16:03:44.504Z,18.37
2019-02-05T16:06:13.143Z,19.60
2019-02-05T16:08:41.870Z,19.77
2019-02-05T16:11:10.633Z,20.07
2019-02-05T16:13:39.277Z,19.67
2019-02-05T16:16:07.812Z,19.73
2019-02-05T16:18:36.583Z,19.00
2019-02-05T16:21:05.179Z,21.50
2019-02-05T16:23:34.752Z,19.53
2019-02-05T16:26:04.896Z,20.03
2019-02-05T16:28:33.498Z,20.60
2019-02-05T16:31:02.414Z,20.37
2019-02-05T16:33:31.415Z,19.60
2019-02-05T16:36:00.559Z,19.60
2019-02-05T16:38:29.329Z,19.47
2019-02-05T16:40:58.009Z,19.63
2019-02-05T16:43:28.113Z,20.33
2019-02-05T16:45:56.774Z,18.60
2019-02-05T16:48:25.479Z,19.07
2019-02-05T16:50:54.351Z,19.13
2019-02-05T16:53:23.075Z,21.90
2019-02-05T16:55:51.601Z,22.73
2019-02-05T16:58:20.185Z,18.43
2019-02-05T17:00:48.907Z,18.07
2019-02-05T17:03:17.655Z,18.00
2019-02-05T17:05:47.071Z,16.70
2019-02-05T17:08:15.665Z,17.63
2019-02-05T17:10:44.261Z,16.67
2019-02-05T17:13:12.885Z,17.30
2019-02-05T17:15:41.500Z,16.93
2019-02-05T17:18:10.068Z,17.40
2019-02-05T17:20:38.964Z,18.43
2019-02-05T17:23:07.842Z,17.43
2019-02-05T17:25:36.487Z,17.20
2019-02-05T17:28:06.286Z,18.17
2019-02-05T17:30:37.197Z,18.70
2019-02-05T17:33:06.171Z,17.00
2019-02-05T17:35:35.619Z,18.27
2019-02-05T17:38:07.620Z,17.60
2019-02-05T17:40:37.185Z,17.03
2019-02-05T17:43:06.614Z,16.77
2019-02-05T17:45:38.359Z,17.03
2019-02-05T17:48:11.354Z,15.37
2019-02-05T17:50:40.529Z,16.57
2019-02-05T17:53:09.035Z,17.43
2019-02-05T17:55:37.636Z,17.13
2019-02-05T17:58:06.498Z,16.87
2019-02-05T18:00:54.118Z,16.83
2019-02-05T18:03:23.105Z,17.30
2019-02-05T18:05:51.688Z,17.77
2019-02-05T18:08:20.618Z,16.93
2019-02-05T18:10:49.247Z,17.90
2019-02-05T18:13:17.780Z,16.53
2019-02-05T18:15:46.391Z,18.97
2019-02-05T18:18:15.260Z,19.17
2019-02-05T18:20:44.295Z,18.83
2019-02-05T18:23:12.983Z,20.17
2019-02-05T18:25:41.743Z,19.60
2019-02-05T18:28:10.291Z,18.43
2019-02-05T18:30:39.019Z,18.50
2019-02-05T18:33:07.868Z,20.37
2019-02-05T18:35:36.637Z,18.03
2019-02-05T18:38:07.848Z,18.73
2019-02-05T18:40:36.533Z,19.27
2019-02-05T18:43:05.435Z,19.63
2019-02-05T18:45:34.187Z,20.33
2019-02-05T18:48:02.923Z,19.60
2019-02-05T18:50:31.619Z,17.20
2019-02-05T18:53:00.865Z,19.50
2019-02-05T18:55:30.587Z,19.23
2019-02-05T18:58:08.692Z,21.27
2019-02-05T19:00:33.406Z,20.13
2019-02-05T19:03:01.922Z,20.53
2019-02-05T19:05:30.799Z,19.30
2019-02-05T19:07:59.541Z,20.50
2019-02-05T19:10:28.489Z,20.73
2019-02-05T19:12:57.778Z,20.60
2019-02-05T19:15:32.123Z,20.73
2019-02-05T19:18:01.059Z,20.63
2019-02-05T19:20:31.074Z,21.13
2019-02-05T19:23:00.410Z,21.23
2019-02-05T19:25:42.498Z,19.67
2019-02-05T19:28:16.928Z,21.47
2019-02-05T19:30:46.223Z,23.17
2019-02-05T19:33:26.434Z,22.27
2019-02-05T19:35:45.332Z,22.10
2019-02-05T19:38:13.911Z,25.27
2019-02-05T19:40:45.078Z,22.10
2019-02-05T19:43:14.077Z,23.30
2019-02-05T19:45:55.603Z,23.97
2019-02-05T19:48:30.233Z,20.50
2019-02-05T19:50:59.142Z,22.00
2019-02-05T19:53:27.746Z,22.77
2019-02-05T19:55:57.189Z,22.60
2019-02-05T19:58:25.691Z,22.63
2019-02-05T20:00:54.723Z,23.27
2019-02-05T20:03:23.286Z,23.40
2019-02-05T20:05:51.860Z,22.33
2019-02-05T20:08:20.489Z,23.77
2019-02-05T20:10:49.145Z,23.00
2019-02-05T20:13:17.818Z,22.27
2019-02-05T20:15:46.518Z,23.37
2019-02-05T20:18:15.517Z,22.07
2019-02-05T20:20:44.537Z,23.70
2019-02-05T20:23:13.137Z,22.53
2019-02-05T20:25:42.032Z,23.03
2019-02-05T20:28:10.614Z,23.73
2019-02-05T20:30:39.423Z,23.20
2019-02-05T20:33:08.319Z,22.80
2019-02-05T20:35:36.915Z,22.13
2019-02-05T20:38:05.415Z,20.90
2019-02-05T20:40:34.999Z,23.00
2019-02-05T20:43:03.675Z,22.20
2019-02-05T20:45:32.268Z,21.70
2019-02-05T20:48:00.697Z,21.63
2019-02-05T20:50:29.346Z,22.07
2019-02-05T20:52:58.223Z,21.20
2019-02-05T20:55:26.812Z,22.23
2019-02-05T20:57:55.499Z,22.53
2019-02-05T21:00:24.071Z,21.43
2019-02-05T21:02:52.726Z,23.67
2019-02-05T21:05:21.530Z,21.30
2019-02-05T21:07:50.545Z,22.03
2019-02-05T21:10:21.750Z,23.53
2019-02-05T21:12:50.630Z,21.90
2019-02-05T21:15:20.958Z,21.17
2019-02-05T21:17:49.733Z,22.33
2019-02-05T21:20:28.922Z,21.03
2019-02-05T21:22:50.319Z,21.43
2019-02-05T21:25:19.901Z,22.83
2019-02-05T21:27:48.638Z,23.00
2019-02-05T21:30:19.266Z,23.43
2019-02-05T21:32:48.097Z,22.57
2019-02-05T21:35:16.793Z,23.10
2019-02-05T21:37:45.563Z,21.40
2019-02-05T21:40:20.020Z,21.40
2019-02-05T21:42:48.562Z,21.67
2019-02-05T21:45:20.038Z,21.40
2019-02-05T21:47:48.768Z,21.60
2019-02-05T21:50:19.341Z,22.43
2019-02-05T21:52:48.927Z,22.63
2019-02-05T21:55:18.303Z,22.53
2019-02-05T21:57:47.729Z,23.00
2019-02-05T22:00:25.783Z,22.87
2019-02-05T22:02:54.711Z,23.03
2019-02-05T22:05:23.927Z,23.67
2019-02-05T22:07:52.788Z,23.67
2019-02-05T22:10:22.053Z,23.83
2019-02-05T22:12:50.736Z,22.93
2019-02-05T22:15:20.219Z,23.23
2019-02-05T22:17:48.925Z,23.83
2019-02-05T22:20:23.510Z,21.47
2019-02-05T22:22:52.038Z,22.03
2019-02-05T22:25:24.100Z,23.07
2019-02-05T22:27:52.633Z,22.80
2019-02-05T22:30:28.356Z,21.27
2019-02-05T22:32:57.158Z,23.17
2019-02-05T22:35:25.945Z,22.93
2019-02-05T22:37:55.051Z,23.43
2019-02-05T22:40:25.457Z,22.93
2019-02-05T22:42:54.883Z,21.63
2019-02-05T22:45:26.392Z,21.43
2019-02-05T22:47:55.269Z,21.73
2019-02-05T22:50:26.227Z,23.20
2019-02-05T22:52:57.554Z,22.73
2019-02-05T22:55:26.551Z,23.27
2019-02-05T22:57:55.027Z,22.77
2019-02-05T23:01:06.888Z,22.37
2019-02-05T23:04:06.985Z,22.23
2019-02-05T23:07:05.277Z,20.67
2019-02-05T23:10:09.392Z,21.97
2019-02-05T23:13:07.705Z,21.00
2019-02-05T23:15:40.739Z,20.23
2019-02-05T23:18:09.841Z,21.20
2019-02-05T23:20:38.473Z,21.83
2019-02-05T23:23:07.156Z,21.10
2019-02-05T23:25:35.724Z,21.10
2019-02-05T23:28:05.030Z,20.70
2019-02-05T23:30:34.583Z,21.23
2019-02-05T23:33:03.307Z,21.57
2019-02-05T23:35:32.809Z,20.90
2019-02-05T23:38:02.506Z,20.37
2019-02-05T23:40:31.102Z,22.40
2019-02-05T23:42:59.707Z,19.50
2019-02-05T23:45:28.578Z,22.53
2019-02-05T23:47:57.179Z,20.20
2019-02-05T23:50:26.032Z,21.40
2019-02-05T23:52:54.556Z,18.80
2019-02-05T23:55:23.254Z,21.70
2019-02-05T23:57:51.682Z,23.33
